N4RS KHPN-KPWM
Flight info
| Callsign | N4RS |
|---|---|
| Flight time | 0h 40m |
| Altitude | 27000 |
| Route | MERIT HFD CLOWW |
| Aircraft | E55P/M-SBDGRW/LB2 |
Departure
| Time | 2026-05-05 09:49 |
|---|---|
| Airport | Westchester County Airport (KHPN) |
Arrival
| Time | 2026-05-05 10:30 |
|---|---|
| Airport | Portland International Jetport (KPWM) |
| Time | Latitude | Longitude | Altitude | Speed | Heading |
|---|---|---|---|---|---|
| 2026-05-05 09:30 | 41.07044 | -73.70670 | 412 ft | 0 kts | 149° |
| 2026-05-05 09:44 | 41.07016 | -73.70662 | 411 ft | 6 kts | 209° |
| 2026-05-05 09:45 | 41.07034 | -73.70716 | 411 ft | 10 kts | 326° |
| 2026-05-05 09:45 | 41.07109 | -73.70773 | 413 ft | 14 kts | 332° |
| 2026-05-05 09:45 | 41.07206 | -73.70832 | 416 ft | 16 kts | 335° |
| 2026-05-05 09:45 | 41.07310 | -73.70896 | 420 ft | 16 kts | 329° |
| 2026-05-05 09:46 | 41.07412 | -73.70973 | 422 ft | 17 kts | 330° |
| 2026-05-05 09:46 | 41.07516 | -73.71056 | 424 ft | 17 kts | 320° |
| 2026-05-05 09:46 | 41.07545 | -73.71151 | 425 ft | 5 kts | 278° |
| 2026-05-05 09:46 | 41.07547 | -73.71178 | 425 ft | 0 kts | 278° |
| 2026-05-05 09:48 | 41.07549 | -73.71197 | 424 ft | 6 kts | 278° |
| 2026-05-05 09:48 | 41.07556 | -73.71279 | 424 ft | 8 kts | 271° |
| 2026-05-05 09:48 | 41.07523 | -73.71307 | 424 ft | 7 kts | 150° |
| 2026-05-05 09:48 | 41.07354 | -73.71178 | 421 ft | 67 kts | 150° |
| 2026-05-05 09:49 | 41.06710 | -73.70685 | 439 ft | 138 kts | 151° |
| 2026-05-05 09:49 | 41.05813 | -73.70012 | 1048 ft | 157 kts | 162° |
| 2026-05-05 09:49 | 41.04735 | -73.69974 | 1678 ft | 165 kts | 209° |
| 2026-05-05 09:49 | 41.04057 | -73.71076 | 2351 ft | 163 kts | 255° |
| 2026-05-05 09:50 | 41.04267 | -73.72543 | 2840 ft | 172 kts | 296° |
| 2026-05-05 09:50 | 41.05090 | -73.73754 | 2996 ft | 180 kts | 306° |
| 2026-05-05 09:50 | 41.05983 | -73.74919 | 3008 ft | 184 kts | 307° |
| 2026-05-05 09:50 | 41.06905 | -73.76130 | 3005 ft | 187 kts | 307° |
| 2026-05-05 09:51 | 41.07851 | -73.77367 | 3174 ft | 200 kts | 308° |
| 2026-05-05 09:51 | 41.09066 | -73.78373 | 3712 ft | 220 kts | 337° |
| 2026-05-05 09:51 | 41.10672 | -73.78230 | 4176 ft | 246 kts | 16° |
| 2026-05-05 09:51 | 41.12014 | -73.76816 | 4579 ft | 259 kts | 53° |
| 2026-05-05 09:52 | 41.12855 | -73.74717 | 4915 ft | 259 kts | 60° |
| 2026-05-05 09:52 | 41.13731 | -73.72581 | 5004 ft | 263 kts | 60° |
| 2026-05-05 09:52 | 41.14615 | -73.70451 | 5128 ft | 266 kts | 60° |
| 2026-05-05 09:52 | 41.15512 | -73.68309 | 5583 ft | 266 kts | 59° |
| 2026-05-05 09:53 | 41.16409 | -73.66155 | 6364 ft | 271 kts | 60° |
| 2026-05-05 09:53 | 41.17305 | -73.64006 | 7385 ft | 272 kts | 59° |
| 2026-05-05 09:53 | 41.18237 | -73.61811 | 8353 ft | 277 kts | 59° |
| 2026-05-05 09:53 | 41.19167 | -73.59597 | 9245 ft | 283 kts | 59° |
| 2026-05-05 09:54 | 41.20118 | -73.57320 | 10166 ft | 287 kts | 59° |
| 2026-05-05 09:54 | 41.21080 | -73.55018 | 11111 ft | 290 kts | 59° |
| 2026-05-05 09:54 | 41.22058 | -73.52671 | 12046 ft | 293 kts | 60° |
| 2026-05-05 09:54 | 41.23042 | -73.50314 | 12921 ft | 298 kts | 60° |
| 2026-05-05 09:55 | 41.24036 | -73.47928 | 13811 ft | 302 kts | 60° |
| 2026-05-05 09:55 | 41.25056 | -73.45482 | 14707 ft | 305 kts | 60° |
| 2026-05-05 09:55 | 41.26075 | -73.43031 | 15534 ft | 310 kts | 60° |
| 2026-05-05 09:55 | 41.27130 | -73.40494 | 16352 ft | 315 kts | 60° |
| 2026-05-05 09:56 | 41.28180 | -73.37968 | 17177 ft | 318 kts | 60° |
| 2026-05-05 09:56 | 41.29247 | -73.35396 | 17980 ft | 321 kts | 61° |
| 2026-05-05 09:56 | 41.30323 | -73.32800 | 18782 ft | 324 kts | 61° |
| 2026-05-05 09:56 | 41.31410 | -73.30179 | 19577 ft | 327 kts | 61° |
| 2026-05-05 09:57 | 41.32503 | -73.27538 | 20342 ft | 330 kts | 62° |
| 2026-05-05 09:57 | 41.33606 | -73.24870 | 21129 ft | 332 kts | 62° |
| 2026-05-05 09:57 | 41.34708 | -73.22205 | 21860 ft | 335 kts | 62° |
| 2026-05-05 09:57 | 41.35832 | -73.19481 | 22592 ft | 337 kts | 62° |
| 2026-05-05 09:58 | 41.36968 | -73.16731 | 23306 ft | 340 kts | 62° |
| 2026-05-05 09:58 | 41.38094 | -73.14002 | 24011 ft | 343 kts | 61° |
| 2026-05-05 09:58 | 41.39307 | -73.11234 | 24703 ft | 346 kts | 59° |
| 2026-05-05 09:58 | 41.40527 | -73.08486 | 25368 ft | 349 kts | 59° |
| 2026-05-05 09:59 | 41.41750 | -73.05724 | 26021 ft | 352 kts | 59° |
| 2026-05-05 09:59 | 41.42993 | -73.02911 | 26600 ft | 357 kts | 59° |
| 2026-05-05 09:59 | 41.44278 | -73.00008 | 26899 ft | 370 kts | 59° |
| 2026-05-05 09:59 | 41.45613 | -72.96983 | 26933 ft | 389 kts | 59° |
| 2026-05-05 10:00 | 41.47012 | -72.93812 | 26928 ft | 406 kts | 59° |
| 2026-05-05 10:00 | 41.48448 | -72.90550 | 26927 ft | 421 kts | 59° |
| 2026-05-05 10:00 | 41.49960 | -72.87115 | 26921 ft | 434 kts | 59° |
| 2026-05-05 10:00 | 41.51501 | -72.83605 | 26918 ft | 445 kts | 59° |
| 2026-05-05 10:01 | 41.53061 | -72.80055 | 26911 ft | 446 kts | 59° |
| 2026-05-05 10:01 | 41.54615 | -72.76505 | 26907 ft | 447 kts | 59° |
| 2026-05-05 10:01 | 41.56183 | -72.72928 | 26906 ft | 449 kts | 59° |
| 2026-05-05 10:01 | 41.57766 | -72.69307 | 26908 ft | 450 kts | 59° |
| 2026-05-05 10:02 | 41.59337 | -72.65707 | 26904 ft | 451 kts | 59° |
| 2026-05-05 10:02 | 41.60915 | -72.62087 | 26905 ft | 452 kts | 59° |
| 2026-05-05 10:02 | 41.62489 | -72.58475 | 26904 ft | 453 kts | 59° |
| 2026-05-05 10:02 | 41.64344 | -72.55125 | 26886 ft | 452 kts | 42° |
| 2026-05-05 10:03 | 41.66937 | -72.52846 | 26903 ft | 448 kts | 22° |
| 2026-05-05 10:03 | 41.69811 | -72.51151 | 26905 ft | 449 kts | 23° |
| 2026-05-05 10:03 | 41.72618 | -72.49425 | 26901 ft | 449 kts | 23° |
| 2026-05-05 10:03 | 41.75453 | -72.47658 | 26900 ft | 450 kts | 23° |
| 2026-05-05 10:04 | 41.78311 | -72.45872 | 26901 ft | 450 kts | 23° |
| 2026-05-05 10:04 | 41.81139 | -72.44102 | 26899 ft | 451 kts | 23° |
| 2026-05-05 10:04 | 41.83960 | -72.42332 | 26899 ft | 452 kts | 23° |
| 2026-05-05 10:04 | 41.86808 | -72.40540 | 26897 ft | 452 kts | 23° |
| 2026-05-05 10:05 | 41.89635 | -72.38766 | 26898 ft | 452 kts | 23° |
| 2026-05-05 10:05 | 41.92497 | -72.36968 | 26897 ft | 453 kts | 23° |
| 2026-05-05 10:05 | 41.95350 | -72.35168 | 26899 ft | 453 kts | 23° |
| 2026-05-05 10:05 | 41.98208 | -72.33366 | 26899 ft | 454 kts | 23° |
| 2026-05-05 10:06 | 42.01057 | -72.31566 | 26900 ft | 454 kts | 23° |
| 2026-05-05 10:06 | 42.03909 | -72.29764 | 26898 ft | 454 kts | 23° |
| 2026-05-05 10:06 | 42.06756 | -72.27965 | 26900 ft | 454 kts | 23° |
| 2026-05-05 10:06 | 42.09633 | -72.26143 | 26895 ft | 455 kts | 23° |
| 2026-05-05 10:07 | 42.12476 | -72.24345 | 26890 ft | 454 kts | 23° |
| 2026-05-05 10:07 | 42.15321 | -72.22538 | 26889 ft | 454 kts | 23° |
| 2026-05-05 10:07 | 42.18180 | -72.20724 | 26890 ft | 454 kts | 23° |
| 2026-05-05 10:07 | 42.21034 | -72.18910 | 26896 ft | 454 kts | 23° |
| 2026-05-05 10:08 | 42.23901 | -72.17086 | 26899 ft | 454 kts | 23° |
| 2026-05-05 10:08 | 42.26733 | -72.15283 | 26901 ft | 454 kts | 23° |
| 2026-05-05 10:08 | 42.29571 | -72.13474 | 26901 ft | 454 kts | 23° |
| 2026-05-05 10:08 | 42.32442 | -72.11643 | 26897 ft | 454 kts | 23° |
| 2026-05-05 10:09 | 42.35309 | -72.09808 | 26895 ft | 454 kts | 23° |
| 2026-05-05 10:09 | 42.38175 | -72.07978 | 26894 ft | 454 kts | 22° |
| 2026-05-05 10:09 | 42.41027 | -72.06151 | 26891 ft | 454 kts | 22° |
| 2026-05-05 10:09 | 42.43871 | -72.04332 | 26895 ft | 454 kts | 22° |
| 2026-05-05 10:10 | 42.46695 | -72.02522 | 26897 ft | 454 kts | 22° |
| 2026-05-05 10:10 | 42.49560 | -72.00679 | 26896 ft | 454 kts | 22° |
| 2026-05-05 10:10 | 42.52421 | -71.98842 | 26895 ft | 454 kts | 22° |
| 2026-05-05 10:10 | 42.55253 | -71.97020 | 26883 ft | 454 kts | 22° |
| 2026-05-05 10:11 | 42.58131 | -71.95166 | 26882 ft | 454 kts | 22° |
| 2026-05-05 10:11 | 42.60957 | -71.93346 | 26879 ft | 454 kts | 22° |
| 2026-05-05 10:11 | 42.63819 | -71.91499 | 26879 ft | 454 kts | 22° |
| 2026-05-05 10:11 | 42.66670 | -71.89660 | 26887 ft | 454 kts | 22° |
| 2026-05-05 10:12 | 42.69474 | -71.87843 | 26888 ft | 454 kts | 22° |
| 2026-05-05 10:12 | 42.72358 | -71.85977 | 26858 ft | 455 kts | 22° |
| 2026-05-05 10:12 | 42.75032 | -71.83684 | 26570 ft | 463 kts | 34° |
| 2026-05-05 10:12 | 42.77650 | -71.81165 | 26120 ft | 465 kts | 32° |
| 2026-05-05 10:13 | 42.80277 | -71.78622 | 25517 ft | 465 kts | 32° |
| 2026-05-05 10:13 | 42.82901 | -71.76094 | 24892 ft | 459 kts | 33° |
| 2026-05-05 10:13 | 42.85492 | -71.73597 | 24289 ft | 454 kts | 32° |
| 2026-05-05 10:13 | 42.88036 | -71.71144 | 23717 ft | 448 kts | 33° |
| 2026-05-05 10:14 | 42.90562 | -71.68700 | 23156 ft | 443 kts | 32° |
| 2026-05-05 10:14 | 42.93071 | -71.66273 | 22625 ft | 440 kts | 32° |
| 2026-05-05 10:14 | 42.95562 | -71.63860 | 22092 ft | 438 kts | 32° |
| 2026-05-05 10:14 | 42.98025 | -71.61479 | 21560 ft | 435 kts | 32° |
| 2026-05-05 10:15 | 43.00482 | -71.59096 | 21026 ft | 432 kts | 32° |
| 2026-05-05 10:15 | 43.02923 | -71.56727 | 20497 ft | 434 kts | 32° |
| 2026-05-05 10:15 | 43.05351 | -71.54366 | 19980 ft | 434 kts | 32° |
| 2026-05-05 10:15 | 43.07840 | -71.51949 | 19454 ft | 434 kts | 32° |
| 2026-05-05 10:16 | 43.10292 | -71.49558 | 18916 ft | 434 kts | 32° |
| 2026-05-05 10:16 | 43.12733 | -71.47179 | 18367 ft | 433 kts | 32° |
| 2026-05-05 10:16 | 43.15167 | -71.44804 | 17829 ft | 432 kts | 32° |
| 2026-05-05 10:16 | 43.17597 | -71.42434 | 17350 ft | 429 kts | 32° |
| 2026-05-05 10:17 | 43.20005 | -71.40073 | 16849 ft | 421 kts | 32° |
| 2026-05-05 10:17 | 43.22341 | -71.37794 | 16308 ft | 414 kts | 32° |
| 2026-05-05 10:17 | 43.24670 | -71.35510 | 15757 ft | 404 kts | 32° |
| 2026-05-05 10:17 | 43.26914 | -71.33305 | 15196 ft | 392 kts | 32° |
| 2026-05-05 10:18 | 43.29094 | -71.31174 | 14645 ft | 383 kts | 33° |
| 2026-05-05 10:18 | 43.31240 | -71.29065 | 14094 ft | 375 kts | 32° |
| 2026-05-05 10:18 | 43.33337 | -71.27000 | 13542 ft | 368 kts | 32° |
| 2026-05-05 10:18 | 43.35375 | -71.24998 | 13000 ft | 362 kts | 32° |
| 2026-05-05 10:19 | 43.37398 | -71.23001 | 12495 ft | 356 kts | 32° |
| 2026-05-05 10:19 | 43.39397 | -71.21036 | 12018 ft | 350 kts | 32° |
| 2026-05-05 10:19 | 43.41373 | -71.19085 | 11577 ft | 344 kts | 32° |
| 2026-05-05 10:19 | 43.43278 | -71.17207 | 11156 ft | 338 kts | 33° |
| 2026-05-05 10:20 | 43.45168 | -71.15339 | 11001 ft | 335 kts | 33° |
| 2026-05-05 10:20 | 43.46713 | -71.12982 | 10976 ft | 335 kts | 62° |
| 2026-05-05 10:20 | 43.47548 | -71.09999 | 10982 ft | 331 kts | 70° |
| 2026-05-05 10:20 | 43.48338 | -71.07037 | 10840 ft | 326 kts | 70° |
| 2026-05-05 10:21 | 43.49108 | -71.04137 | 10493 ft | 326 kts | 70° |
| 2026-05-05 10:21 | 43.49895 | -71.01196 | 10117 ft | 326 kts | 70° |
| 2026-05-05 10:21 | 43.50664 | -70.98321 | 9745 ft | 322 kts | 70° |
| 2026-05-05 10:21 | 43.51437 | -70.95448 | 9368 ft | 319 kts | 70° |
| 2026-05-05 10:22 | 43.52199 | -70.92594 | 8991 ft | 315 kts | 70° |
| 2026-05-05 10:22 | 43.52956 | -70.89768 | 8596 ft | 314 kts | 70° |
| 2026-05-05 10:22 | 43.53700 | -70.86980 | 8201 ft | 311 kts | 70° |
| 2026-05-05 10:22 | 43.54610 | -70.84309 | 7803 ft | 310 kts | 60° |
| 2026-05-05 10:23 | 43.55643 | -70.81715 | 7411 ft | 307 kts | 62° |
| 2026-05-05 10:23 | 43.56658 | -70.79150 | 7028 ft | 305 kts | 61° |
| 2026-05-05 10:23 | 43.57661 | -70.76588 | 6638 ft | 298 kts | 61° |
| 2026-05-05 10:23 | 43.58624 | -70.74124 | 6236 ft | 289 kts | 61° |
| 2026-05-05 10:24 | 43.59565 | -70.71730 | 5837 ft | 281 kts | 62° |
| 2026-05-05 10:24 | 43.60476 | -70.69398 | 5430 ft | 275 kts | 62° |
| 2026-05-05 10:24 | 43.61364 | -70.67126 | 5034 ft | 270 kts | 63° |
| 2026-05-05 10:24 | 43.62257 | -70.64839 | 4628 ft | 266 kts | 63° |
| 2026-05-05 10:25 | 43.63121 | -70.62626 | 4235 ft | 263 kts | 63° |
| 2026-05-05 10:25 | 43.63890 | -70.60348 | 3845 ft | 259 kts | 68° |
| 2026-05-05 10:25 | 43.64603 | -70.58111 | 3526 ft | 254 kts | 68° |
| 2026-05-05 10:25 | 43.65310 | -70.55898 | 3202 ft | 250 kts | 68° |
| 2026-05-05 10:26 | 43.65884 | -70.53709 | 3044 ft | 236 kts | 88° |
| 2026-05-05 10:26 | 43.65869 | -70.51511 | 2831 ft | 227 kts | 101° |
| 2026-05-05 10:26 | 43.65730 | -70.49423 | 2505 ft | 210 kts | 102° |
| 2026-05-05 10:26 | 43.65599 | -70.47491 | 2275 ft | 195 kts | 102° |
| 2026-05-05 10:27 | 43.65469 | -70.45654 | 2020 ft | 194 kts | 102° |
| 2026-05-05 10:27 | 43.65344 | -70.43790 | 1751 ft | 193 kts | 101° |
| 2026-05-05 10:27 | 43.65232 | -70.42050 | 1500 ft | 171 kts | 102° |
| 2026-05-05 10:27 | 43.65131 | -70.40559 | 1280 ft | 146 kts | 103° |
| 2026-05-05 10:28 | 43.65041 | -70.39222 | 1069 ft | 132 kts | 103° |
| 2026-05-05 10:28 | 43.64949 | -70.38026 | 880 ft | 120 kts | 103° |
| 2026-05-05 10:28 | 43.64875 | -70.36910 | 721 ft | 114 kts | 101° |
| 2026-05-05 10:28 | 43.64807 | -70.35841 | 580 ft | 109 kts | 100° |
| 2026-05-05 10:29 | 43.64739 | -70.34820 | 433 ft | 106 kts | 102° |
| 2026-05-05 10:29 | 43.64670 | -70.33810 | 289 ft | 106 kts | 99° |
| 2026-05-05 10:29 | 43.64599 | -70.32807 | 124 ft | 104 kts | 98° |
| 2026-05-05 10:29 | 43.64537 | -70.31880 | 63 ft | 81 kts | 94° |
| 2026-05-05 10:30 | 43.64502 | -70.31368 | 63 ft | 40 kts | 94° |
| 2026-05-05 10:30 | 43.64491 | -70.31118 | 59 ft | 17 kts | 67° |
| 2026-05-05 10:30 | 43.64572 | -70.31071 | 58 ft | 10 kts | 31° |
| 2026-05-05 10:30 | 43.64585 | -70.30951 | 55 ft | 17 kts | 96° |
| 2026-05-05 10:31 | 43.64572 | -70.30764 | 50 ft | 20 kts | 93° |
| 2026-05-05 10:31 | 43.64652 | -70.30700 | 47 ft | 16 kts | 358° |
| 2026-05-05 10:31 | 43.64769 | -70.30705 | 48 ft | 17 kts | 358° |
| 2026-05-05 10:31 | 43.64891 | -70.30710 | 48 ft | 17 kts | 358° |
| 2026-05-05 10:32 | 43.64981 | -70.30740 | 49 ft | 12 kts | 322° |
| 2026-05-05 10:32 | 43.64996 | -70.30808 | 52 ft | 2 kts | 207° |
| 2026-05-05 10:32 | 43.64983 | -70.30806 | 52 ft | 0 kts | 165° |
| 2026-05-05 10:32 | 43.64976 | -70.30804 | 52 ft | 0 kts | 178° |
| 2026-05-05 10:33 | 43.64974 | -70.30804 | 52 ft | 0 kts | 178° |